sensor_id;sensor_type;location;lat;lon;timestamp;temperature;humidity
11559;DHT22;5835;42.930;25.178;2023-07-20T00:02:19;22.70;1.00
11559;DHT22;5835;42.930;25.178;2023-07-20T00:04:47;22.60;1.00
11559;DHT22;5835;42.930;25.178;2023-07-20T00:07:14;22.60;1.00
11559;DHT22;5835;42.930;25.178;2023-07-20T00:09:44;22.50;1.00
11559;DHT22;5835;42.930;25.178;2023-07-20T00:12:11;22.50;1.00
11559;DHT22;5835;42.930;25.178;2023-07-20T00:14:39;22.40;1.00
11559;DHT22;5835;42.930;25.178;2023-07-20T00:17:06;22.30;1.00
11559;DHT22;5835;42.930;25.178;2023-07-20T00:19:34;22.20;1.00
11559;DHT22;5835;42.930;25.178;2023-07-20T00:22:02;22.10;1.00
11559;DHT22;5835;42.930;25.178;2023-07-20T00:24:30;22.10;1.00
11559;DHT22;5835;42.930;25.178;2023-07-20T00:27:00;22.10;1.00
11559;DHT22;5835;42.930;25.178;2023-07-20T00:29:28;21.90;75.20
11559;DHT22;5835;42.930;25.178;2023-07-20T00:31:56;21.80;99.90
11559;DHT22;5835;42.930;25.178;2023-07-20T00:34:24;21.70;1.00
11559;DHT22;5835;42.930;25.178;2023-07-20T00:36:52;21.60;1.00
11559;DHT22;5835;42.930;25.178;2023-07-20T00:39:19;21.60;1.00
11559;DHT22;5835;42.930;25.178;2023-07-20T00:41:47;21.60;1.00
11559;DHT22;5835;42.930;25.178;2023-07-20T00:44:16;21.40;1.00
11559;DHT22;5835;42.930;25.178;2023-07-20T00:46:44;21.10;99.90
11559;DHT22;5835;42.930;25.178;2023-07-20T00:49:12;21.10;1.00
11559;DHT22;5835;42.930;25.178;2023-07-20T01:30:22;20.20;1.00
11559;DHT22;5835;42.930;25.178;2023-07-20T01:32:55;20.30;1.00
11559;DHT22;5835;42.930;25.178;2023-07-20T01:35:25;20.10;1.00
11559;DHT22;5835;42.930;25.178;2023-07-20T01:37:54;20.00;55.30
11559;DHT22;5835;42.930;25.178;2023-07-20T01:40:22;19.90;33.40
11559;DHT22;5835;42.930;25.178;2023-07-20T01:42:51;19.90;99.90
11559;DHT22;5835;42.930;25.178;2023-07-20T01:45:19;19.90;28.90
11559;DHT22;5835;42.930;25.178;2023-07-20T01:47:47;20.00;1.00
11559;DHT22;5835;42.930;25.178;2023-07-20T01:50:14;20.10;1.00
11559;DHT22;5835;42.930;25.178;2023-07-20T01:52:41;20.00;11.50
11559;DHT22;5835;42.930;25.178;2023-07-20T01:55:08;20.10;1.00
11559;DHT22;5835;42.930;25.178;2023-07-20T01:57:36;20.10;23.80
11559;DHT22;5835;42.930;25.178;2023-07-20T02:00:05;20.10;1.00
11559;DHT22;5835;42.930;25.178;2023-07-20T02:02:32;20.10;1.00
11559;DHT22;5835;42.930;25.178;2023-07-20T02:04:59;20.10;1.00
11559;DHT22;5835;42.930;25.178;2023-07-20T02:07:27;20.10;1.00
11559;DHT22;5835;42.930;25.178;2023-07-20T02:09:54;20.20;1.00
11559;DHT22;5835;42.930;25.178;2023-07-20T02:12:21;20.20;1.00
11559;DHT22;5835;42.930;25.178;2023-07-20T02:14:48;20.20;1.00
11559;DHT22;5835;42.930;25.178;2023-07-20T02:17:17;20.20;1.00
11559;DHT22;5835;42.930;25.178;2023-07-20T02:19:44;20.30;1.00
11559;DHT22;5835;42.930;25.178;2023-07-20T02:22:11;20.40;1.00
11559;DHT22;5835;42.930;25.178;2023-07-20T02:24:39;20.40;1.00
11559;DHT22;5835;42.930;25.178;2023-07-20T02:27:06;20.40;1.00
11559;DHT22;5835;42.930;25.178;2023-07-20T02:29:33;20.30;1.00
11559;DHT22;5835;42.930;25.178;2023-07-20T02:32:00;20.10;10.00
11559;DHT22;5835;42.930;25.178;2023-07-20T02:34:26;20.10;22.30
11559;DHT22;5835;42.930;25.178;2023-07-20T02:36:54;20.20;7.90
11559;DHT22;5835;42.930;25.178;2023-07-20T02:39:22;20.10;7.60
11559;DHT22;5835;42.930;25.178;2023-07-20T02:41:50;20.20;4.10
11559;DHT22;5835;42.930;25.178;2023-07-20T02:44:17;20.20;16.10
11559;DHT22;5835;42.930;25.178;2023-07-20T02:46:43;20.20;1.00
11559;DHT22;5835;42.930;25.178;2023-07-20T02:49:10;20.10;30.00
11559;DHT22;5835;42.930;25.178;2023-07-20T02:51:37;20.20;1.00
11559;DHT22;5835;42.930;25.178;2023-07-20T02:54:04;20.40;1.00
11559;DHT22;5835;42.930;25.178;2023-07-20T02:56:31;20.40;1.00
11559;DHT22;5835;42.930;25.178;2023-07-20T02:59:01;21.00;98.50
11559;DHT22;5835;42.930;25.178;2023-07-20T03:01:27;20.70;1.00
11559;DHT22;5835;42.930;25.178;2023-07-20T03:03:55;20.30;1.00
11559;DHT22;5835;42.930;25.178;2023-07-20T03:06:22;20.60;99.90
11559;DHT22;5835;42.930;25.178;2023-07-20T03:08:49;20.90;90.20
11559;DHT22;5835;42.930;25.178;2023-07-20T03:11:18;20.70;1.00
11559;DHT22;5835;42.930;25.178;2023-07-20T03:13:46;20.70;99.90
11559;DHT22;5835;42.930;25.178;2023-07-20T03:16:18;21.20;1.00
11559;DHT22;5835;42.930;25.178;2023-07-20T03:18:45;20.60;44.00
11559;DHT22;5835;42.930;25.178;2023-07-20T03:21:12;20.90;1.00
11559;DHT22;5835;42.930;25.178;2023-07-20T03:23:40;21.20;40.90
11559;DHT22;5835;42.930;25.178;2023-07-20T03:26:07;21.60;1.00
11559;DHT22;5835;42.930;25.178;2023-07-20T03:28:34;21.60;1.00
11559;DHT22;5835;42.930;25.178;2023-07-20T03:31:02;21.70;1.00
11559;DHT22;5835;42.930;25.178;2023-07-20T03:33:30;21.60;1.00
11559;DHT22;5835;42.930;25.178;2023-07-20T03:35:58;21.50;1.00
11559;DHT22;5835;42.930;25.178;2023-07-20T03:38:25;21.40;1.00
11559;DHT22;5835;42.930;25.178;2023-07-20T03:40:53;21.40;1.00
11559;DHT22;5835;42.930;25.178;2023-07-20T03:43:20;21.50;1.00
11559;DHT22;5835;42.930;25.178;2023-07-20T03:45:47;21.40;1.00
11559;DHT22;5835;42.930;25.178;2023-07-20T03:48:16;21.40;1.00
11559;DHT22;5835;42.930;25.178;2023-07-20T03:50:48;21.40;1.00
11559;DHT22;5835;42.930;25.178;2023-07-20T03:53:16;21.30;1.00
11559;DHT22;5835;42.930;25.178;2023-07-20T03:55:45;21.40;1.00
11559;DHT22;5835;42.930;25.178;2023-07-20T03:58:13;21.10;1.00
11559;DHT22;5835;42.930;25.178;2023-07-20T04:00:42;21.20;1.00
11559;DHT22;5835;42.930;25.178;2023-07-20T04:03:10;20.20;95.90
11559;DHT22;5835;42.930;25.178;2023-07-20T04:05:37;19.90;99.90
11559;DHT22;5835;42.930;25.178;2023-07-20T04:08:08;19.70;99.90
11559;DHT22;5835;42.930;25.178;2023-07-20T04:10:35;19.70;99.90
11559;DHT22;5835;42.930;25.178;2023-07-20T04:13:03;19.70;99.90
11559;DHT22;5835;42.930;25.178;2023-07-20T04:15:31;19.70;99.90
11559;DHT22;5835;42.930;25.178;2023-07-20T04:17:58;20.00;99.90
11559;DHT22;5835;42.930;25.178;2023-07-20T04:20:24;20.00;99.90
11559;DHT22;5835;42.930;25.178;2023-07-20T04:22:51;20.10;99.90
11559;DHT22;5835;42.930;25.178;2023-07-20T04:25:19;20.30;99.90
11559;DHT22;5835;42.930;25.178;2023-07-20T04:27:46;20.40;99.90
11559;DHT22;5835;42.930;25.178;2023-07-20T04:30:13;20.70;99.90
11559;DHT22;5835;42.930;25.178;2023-07-20T04:32:41;20.90;11.80
11559;DHT22;5835;42.930;25.178;2023-07-20T04:35:18;21.10;29.70
11559;DHT22;5835;42.930;25.178;2023-07-20T04:37:45;21.30;8.10
11559;DHT22;5835;42.930;25.178;2023-07-20T04:40:12;21.60;1.00
11559;DHT22;5835;42.930;25.178;2023-07-20T04:42:41;21.80;1.00
11559;DHT22;5835;42.930;25.178;2023-07-20T04:45:09;22.00;99.90
11559;DHT22;5835;42.930;25.178;2023-07-20T04:47:35;22.20;1.00
11559;DHT22;5835;42.930;25.178;2023-07-20T04:50:05;22.10;99.90
11559;DHT22;5835;42.930;25.178;2023-07-20T04:52:32;22.00;1.00
11559;DHT22;5835;42.930;25.178;2023-07-20T04:55:00;22.00;1.00
11559;DHT22;5835;42.930;25.178;2023-07-20T04:57:27;22.00;1.00
11559;DHT22;5835;42.930;25.178;2023-07-20T04:59:55;22.00;99.90
11559;DHT22;5835;42.930;25.178;2023-07-20T05:02:22;22.10;1.00
11559;DHT22;5835;42.930;25.178;2023-07-20T05:04:48;22.10;1.00
11559;DHT22;5835;42.930;25.178;2023-07-20T05:07:15;22.10;1.00
11559;DHT22;5835;42.930;25.178;2023-07-20T05:09:42;22.00;1.00
11559;DHT22;5835;42.930;25.178;2023-07-20T05:12:09;22.10;1.00
11559;DHT22;5835;42.930;25.178;2023-07-20T05:14:37;22.30;1.00
11559;DHT22;5835;42.930;25.178;2023-07-20T05:17:06;22.40;1.00
11559;DHT22;5835;42.930;25.178;2023-07-20T05:19:32;22.60;1.00
11559;DHT22;5835;42.930;25.178;2023-07-20T05:22:00;22.70;99.90
11559;DHT22;5835;42.930;25.178;2023-07-20T05:24:26;22.90;99.90
11559;DHT22;5835;42.930;25.178;2023-07-20T05:26:53;23.10;99.90
11559;DHT22;5835;42.930;25.178;2023-07-20T05:29:20;23.30;99.90
11559;DHT22;5835;42.930;25.178;2023-07-20T05:31:47;23.50;99.90
11559;DHT22;5835;42.930;25.178;2023-07-20T05:34:15;23.60;1.00
11559;DHT22;5835;42.930;25.178;2023-07-20T05:36:45;23.80;99.90
11559;DHT22;5835;42.930;25.178;2023-07-20T05:39:12;23.70;1.00
11559;DHT22;5835;42.930;25.178;2023-07-20T05:41:39;23.70;99.90
11559;DHT22;5835;42.930;25.178;2023-07-20T05:44:06;23.70;1.00
11559;DHT22;5835;42.930;25.178;2023-07-20T05:46:34;23.70;1.00
11559;DHT22;5835;42.930;25.178;2023-07-20T05:49:02;23.90;1.00
11559;DHT22;5835;42.930;25.178;2023-07-20T05:51:31;24.10;1.00
11559;DHT22;5835;42.930;25.178;2023-07-20T05:53:58;24.20;1.00
11559;DHT22;5835;42.930;25.178;2023-07-20T05:56:26;24.30;83.50
11559;DHT22;5835;42.930;25.178;2023-07-20T05:58:53;24.40;1.00
11559;DHT22;5835;42.930;25.178;2023-07-20T06:01:21;24.50;99.90
11559;DHT22;5835;42.930;25.178;2023-07-20T06:03:48;24.50;99.90
11559;DHT22;5835;42.930;25.178;2023-07-20T06:06:16;24.60;1.00
11559;DHT22;5835;42.930;25.178;2023-07-20T06:08:45;24.70;1.00
11559;DHT22;5835;42.930;25.178;2023-07-20T06:11:12;24.70;1.00
11559;DHT22;5835;42.930;25.178;2023-07-20T06:13:40;24.60;1.00
11559;DHT22;5835;42.930;25.178;2023-07-20T06:16:09;24.70;99.90
11559;DHT22;5835;42.930;25.178;2023-07-20T06:18:37;24.70;99.90
11559;DHT22;5835;42.930;25.178;2023-07-20T06:21:04;24.70;99.90
11559;DHT22;5835;42.930;25.178;2023-07-20T06:23:32;24.70;99.90
11559;DHT22;5835;42.930;25.178;2023-07-20T06:26:01;24.60;99.90
11559;DHT22;5835;42.930;25.178;2023-07-20T06:28:28;24.80;99.90
11559;DHT22;5835;42.930;25.178;2023-07-20T06:30:59;24.70;99.90
11559;DHT22;5835;42.930;25.178;2023-07-20T06:33:27;24.60;99.90
11559;DHT22;5835;42.930;25.178;2023-07-20T06:35:55;24.70;99.90
11559;DHT22;5835;42.930;25.178;2023-07-20T06:38:23;24.90;99.90
11559;DHT22;5835;42.930;25.178;2023-07-20T06:40:51;24.70;99.90
11559;DHT22;5835;42.930;25.178;2023-07-20T06:43:20;25.00;97.40
11559;DHT22;5835;42.930;25.178;2023-07-20T06:45:52;25.20;99.90
11559;DHT22;5835;42.930;25.178;2023-07-20T06:48:20;25.00;97.00
11559;DHT22;5835;42.930;25.178;2023-07-20T06:50:47;25.20;86.80
11559;DHT22;5835;42.930;25.178;2023-07-20T06:53:15;25.40;37.00
11559;DHT22;5835;42.930;25.178;2023-07-20T06:55:43;25.70;98.40
11559;DHT22;5835;42.930;25.178;2023-07-20T06:58:11;25.80;1.00
11559;DHT22;5835;42.930;25.178;2023-07-20T07:00:40;25.60;1.00
11559;DHT22;5835;42.930;25.178;2023-07-20T07:03:08;25.80;1.00
11559;DHT22;5835;42.930;25.178;2023-07-20T07:05:36;26.00;1.00
11559;DHT22;5835;42.930;25.178;2023-07-20T07:08:04;25.90;1.00
11559;DHT22;5835;42.930;25.178;2023-07-20T07:10:34;25.90;1.00
11559;DHT22;5835;42.930;25.178;2023-07-20T07:13:02;25.90;1.00
11559;DHT22;5835;42.930;25.178;2023-07-20T07:15:29;26.00;1.00
11559;DHT22;5835;42.930;25.178;2023-07-20T07:17:58;25.90;1.00
11559;DHT22;5835;42.930;25.178;2023-07-20T07:20:26;26.20;1.00
11559;DHT22;5835;42.930;25.178;2023-07-20T07:22:55;26.40;1.00
11559;DHT22;5835;42.930;25.178;2023-07-20T07:25:23;26.80;1.00
11559;DHT22;5835;42.930;25.178;2023-07-20T07:27:52;26.70;1.00
11559;DHT22;5835;42.930;25.178;2023-07-20T07:30:20;27.00;1.00
11559;DHT22;5835;42.930;25.178;2023-07-20T07:32:48;27.00;99.90
11559;DHT22;5835;42.930;25.178;2023-07-20T07:35:17;27.20;99.90
11559;DHT22;5835;42.930;25.178;2023-07-20T07:37:45;27.40;99.90
11559;DHT22;5835;42.930;25.178;2023-07-20T07:40:13;27.50;99.90
11559;DHT22;5835;42.930;25.178;2023-07-20T07:42:41;27.40;90.90
11559;DHT22;5835;42.930;25.178;2023-07-20T07:45:09;27.50;40.30
11559;DHT22;5835;42.930;25.178;2023-07-20T07:47:37;27.40;47.50
11559;DHT22;5835;42.930;25.178;2023-07-20T07:50:05;27.80;22.00
11559;DHT22;5835;42.930;25.178;2023-07-20T07:52:34;28.10;36.60
11559;DHT22;5835;42.930;25.178;2023-07-20T07:55:02;28.60;25.00
11559;DHT22;5835;42.930;25.178;2023-07-20T07:57:30;28.20;1.00
11559;DHT22;5835;42.930;25.178;2023-07-20T07:59:58;28.50;1.00
11559;DHT22;5835;42.930;25.178;2023-07-20T08:02:25;28.70;1.10
11559;DHT22;5835;42.930;25.178;2023-07-20T08:04:54;28.60;1.00
11559;DHT22;5835;42.930;25.178;2023-07-20T08:07:22;28.80;1.00
11559;DHT22;5835;42.930;25.178;2023-07-20T08:09:51;28.80;1.00
11559;DHT22;5835;42.930;25.178;2023-07-20T08:12:18;28.60;1.00
11559;DHT22;5835;42.930;25.178;2023-07-20T08:14:46;28.40;1.00
11559;DHT22;5835;42.930;25.178;2023-07-20T08:17:14;28.80;1.00
11559;DHT22;5835;42.930;25.178;2023-07-20T08:19:42;29.00;1.00
11559;DHT22;5835;42.930;25.178;2023-07-20T08:22:10;28.70;1.00
11559;DHT22;5835;42.930;25.178;2023-07-20T08:24:40;28.60;1.00
11559;DHT22;5835;42.930;25.178;2023-07-20T08:27:09;28.70;1.00
11559;DHT22;5835;42.930;25.178;2023-07-20T08:29:37;29.60;1.00
11559;DHT22;5835;42.930;25.178;2023-07-20T08:32:06;28.90;1.00
11559;DHT22;5835;42.930;25.178;2023-07-20T08:34:34;29.50;1.00
11559;DHT22;5835;42.930;25.178;2023-07-20T08:37:01;29.90;1.00
11559;DHT22;5835;42.930;25.178;2023-07-20T08:39:29;29.90;1.00
11559;DHT22;5835;42.930;25.178;2023-07-20T08:41:58;30.20;1.00
11559;DHT22;5835;42.930;25.178;2023-07-20T08:44:33;30.20;1.00
11559;DHT22;5835;42.930;25.178;2023-07-20T08:47:02;29.80;1.00
11559;DHT22;5835;42.930;25.178;2023-07-20T08:49:31;29.90;1.00
11559;DHT22;5835;42.930;25.178;2023-07-20T08:51:59;30.00;1.00
11559;DHT22;5835;42.930;25.178;2023-07-20T08:54:30;29.70;1.00
11559;DHT22;5835;42.930;25.178;2023-07-20T08:57:02;29.70;1.00
11559;DHT22;5835;42.930;25.178;2023-07-20T08:59:32;29.60;1.00
11559;DHT22;5835;42.930;25.178;2023-07-20T09:02:00;29.50;1.00
11559;DHT22;5835;42.930;25.178;2023-07-20T09:04:29;28.70;1.00
11559;DHT22;5835;42.930;25.178;2023-07-20T09:06:58;28.60;1.00
11559;DHT22;5835;42.930;25.178;2023-07-20T09:09:25;28.70;1.00
11559;DHT22;5835;42.930;25.178;2023-07-20T09:11:53;29.00;1.00
11559;DHT22;5835;42.930;25.178;2023-07-20T09:14:23;29.20;1.00
11559;DHT22;5835;42.930;25.178;2023-07-20T09:16:53;28.80;1.00
11559;DHT22;5835;42.930;25.178;2023-07-20T09:19:21;29.10;1.00
11559;DHT22;5835;42.930;25.178;2023-07-20T09:21:51;29.20;1.00
11559;DHT22;5835;42.930;25.178;2023-07-20T09:24:19;29.00;1.00
11559;DHT22;5835;42.930;25.178;2023-07-20T09:26:48;29.10;1.00
11559;DHT22;5835;42.930;25.178;2023-07-20T09:29:18;29.00;1.00
11559;DHT22;5835;42.930;25.178;2023-07-20T09:31:59;29.20;1.00
11559;DHT22;5835;42.930;25.178;2023-07-20T09:34:29;29.00;1.00
11559;DHT22;5835;42.930;25.178;2023-07-20T09:36:58;29.40;1.00
11559;DHT22;5835;42.930;25.178;2023-07-20T09:39:26;29.30;1.00
11559;DHT22;5835;42.930;25.178;2023-07-20T09:41:54;29.30;1.00
11559;DHT22;5835;42.930;25.178;2023-07-20T09:44:22;29.20;1.00
11559;DHT22;5835;42.930;25.178;2023-07-20T09:46:50;29.30;1.00
11559;DHT22;5835;42.930;25.178;2023-07-20T09:49:20;29.60;1.00
11559;DHT22;5835;42.930;25.178;2023-07-20T09:51:47;29.50;1.00
11559;DHT22;5835;42.930;25.178;2023-07-20T09:54:16;29.30;1.00
11559;DHT22;5835;42.930;25.178;2023-07-20T09:56:46;29.60;1.00
11559;DHT22;5835;42.930;25.178;2023-07-20T09:59:16;29.90;1.00
11559;DHT22;5835;42.930;25.178;2023-07-20T10:01:45;30.00;1.00
11559;DHT22;5835;42.930;25.178;2023-07-20T10:04:14;29.70;1.00
11559;DHT22;5835;42.930;25.178;2023-07-20T10:06:46;29.60;1.00
11559;DHT22;5835;42.930;25.178;2023-07-20T10:09:15;29.70;1.00
11559;DHT22;5835;42.930;25.178;2023-07-20T10:11:50;29.90;1.00
11559;DHT22;5835;42.930;25.178;2023-07-20T10:14:20;30.40;1.00
11559;DHT22;5835;42.930;25.178;2023-07-20T10:16:51;30.00;1.00
11559;DHT22;5835;42.930;25.178;2023-07-20T10:19:25;29.60;1.00
11559;DHT22;5835;42.930;25.178;2023-07-20T10:22:00;30.20;1.00
11559;DHT22;5835;42.930;25.178;2023-07-20T10:24:31;30.30;1.00
11559;DHT22;5835;42.930;25.178;2023-07-20T10:26:59;30.40;1.00
11559;DHT22;5835;42.930;25.178;2023-07-20T10:29:27;29.90;1.00
11559;DHT22;5835;42.930;25.178;2023-07-20T10:31:56;30.00;1.00
11559;DHT22;5835;42.930;25.178;2023-07-20T10:34:25;29.90;1.00
11559;DHT22;5835;42.930;25.178;2023-07-20T10:36:52;30.30;1.00
11559;DHT22;5835;42.930;25.178;2023-07-20T10:39:25;30.90;1.00
11559;DHT22;5835;42.930;25.178;2023-07-20T10:42:00;30.70;1.00
11559;DHT22;5835;42.930;25.178;2023-07-20T10:44:30;30.70;1.00
11559;DHT22;5835;42.930;25.178;2023-07-20T10:47:02;30.80;1.00
11559;DHT22;5835;42.930;25.178;2023-07-20T10:49:33;30.50;1.00
11559;DHT22;5835;42.930;25.178;2023-07-20T10:52:04;30.40;1.00
11559;DHT22;5835;42.930;25.178;2023-07-20T10:54:47;30.80;1.00
11559;DHT22;5835;42.930;25.178;2023-07-20T10:57:23;30.20;1.00
11559;DHT22;5835;42.930;25.178;2023-07-20T10:59:50;30.40;1.00
11559;DHT22;5835;42.930;25.178;2023-07-20T11:02:19;30.80;1.00
11559;DHT22;5835;42.930;25.178;2023-07-20T11:04:47;30.50;1.00
11559;DHT22;5835;42.930;25.178;2023-07-20T11:07:36;31.00;1.00
11559;DHT22;5835;42.930;25.178;2023-07-20T11:10:14;30.40;1.00
11559;DHT22;5835;42.930;25.178;2023-07-20T11:13:17;30.10;1.00
11559;DHT22;5835;42.930;25.178;2023-07-20T11:15:45;30.50;1.00
11559;DHT22;5835;42.930;25.178;2023-07-20T11:18:14;30.80;1.00
11559;DHT22;5835;42.930;25.178;2023-07-20T11:20:41;30.90;1.00
11559;DHT22;5835;42.930;25.178;2023-07-20T11:23:10;31.30;1.00
11559;DHT22;5835;42.930;25.178;2023-07-20T11:25:40;31.00;1.00
11559;DHT22;5835;42.930;25.178;2023-07-20T11:28:08;30.70;1.00
11559;DHT22;5835;42.930;25.178;2023-07-20T11:30:37;30.80;1.00
11559;DHT22;5835;42.930;25.178;2023-07-20T11:33:05;30.80;1.00
11559;DHT22;5835;42.930;25.178;2023-07-20T11:35:36;30.50;1.00
11559;DHT22;5835;42.930;25.178;2023-07-20T11:38:09;31.30;1.00
11559;DHT22;5835;42.930;25.178;2023-07-20T11:40:36;30.70;1.00
11559;DHT22;5835;42.930;25.178;2023-07-20T11:43:11;30.60;1.00
11559;DHT22;5835;42.930;25.178;2023-07-20T11:45:39;30.90;1.00
11559;DHT22;5835;42.930;25.178;2023-07-20T11:48:07;31.30;1.00
11559;DHT22;5835;42.930;25.178;2023-07-20T11:50:41;31.30;1.00
11559;DHT22;5835;42.930;25.178;2023-07-20T11:53:09;31.40;1.00
11559;DHT22;5835;42.930;25.178;2023-07-20T11:55:37;31.40;1.00
11559;DHT22;5835;42.930;25.178;2023-07-20T11:58:06;31.50;1.00
11559;DHT22;5835;42.930;25.178;2023-07-20T12:00:37;31.20;1.00
11559;DHT22;5835;42.930;25.178;2023-07-20T12:03:06;31.10;1.00
11559;DHT22;5835;42.930;25.178;2023-07-20T12:05:34;31.10;1.00
11559;DHT22;5835;42.930;25.178;2023-07-20T12:08:02;31.70;1.00
11559;DHT22;5835;42.930;25.178;2023-07-20T12:10:30;31.80;1.00
11559;DHT22;5835;42.930;25.178;2023-07-20T12:13:02;32.10;1.00
11559;DHT22;5835;42.930;25.178;2023-07-20T12:15:30;32.20;1.00
11559;DHT22;5835;42.930;25.178;2023-07-20T12:18:01;31.50;1.00
11559;DHT22;5835;42.930;25.178;2023-07-20T12:20:31;31.90;1.00
11559;DHT22;5835;42.930;25.178;2023-07-20T12:23:00;32.50;1.00
11559;DHT22;5835;42.930;25.178;2023-07-20T12:25:37;32.70;1.00
11559;DHT22;5835;42.930;25.178;2023-07-20T12:28:06;33.20;1.00
11559;DHT22;5835;42.930;25.178;2023-07-20T12:30:34;32.50;1.00
11559;DHT22;5835;42.930;25.178;2023-07-20T12:33:04;32.60;1.00
11559;DHT22;5835;42.930;25.178;2023-07-20T12:35:32;32.80;1.00
11559;DHT22;5835;42.930;25.178;2023-07-20T12:38:00;33.10;1.00
11559;DHT22;5835;42.930;25.178;2023-07-20T12:40:28;33.00;1.00
11559;DHT22;5835;42.930;25.178;2023-07-20T12:42:56;33.20;1.00
11559;DHT22;5835;42.930;25.178;2023-07-20T12:45:24;34.00;1.00
11559;DHT22;5835;42.930;25.178;2023-07-20T12:47:52;34.20;1.00
11559;DHT22;5835;42.930;25.178;2023-07-20T12:50:21;33.70;1.00
11559;DHT22;5835;42.930;25.178;2023-07-20T12:52:49;33.70;1.00
11559;DHT22;5835;42.930;25.178;2023-07-20T12:55:16;34.40;1.00
11559;DHT22;5835;42.930;25.178;2023-07-20T12:57:45;35.00;1.00
11559;DHT22;5835;42.930;25.178;2023-07-20T13:00:15;35.00;1.00
11559;DHT22;5835;42.930;25.178;2023-07-20T13:02:43;35.40;1.00
11559;DHT22;5835;42.930;25.178;2023-07-20T13:05:10;34.70;1.00
11559;DHT22;5835;42.930;25.178;2023-07-20T13:07:40;35.30;1.00
11559;DHT22;5835;42.930;25.178;2023-07-20T13:10:09;36.00;1.00
11559;DHT22;5835;42.930;25.178;2023-07-20T13:12:37;36.40;1.00
11559;DHT22;5835;42.930;25.178;2023-07-20T13:15:07;36.30;1.00
11559;DHT22;5835;42.930;25.178;2023-07-20T13:17:36;36.10;1.00
11559;DHT22;5835;42.930;25.178;2023-07-20T13:20:05;35.80;1.00
11559;DHT22;5835;42.930;25.178;2023-07-20T13:22:34;36.20;1.00
11559;DHT22;5835;42.930;25.178;2023-07-20T13:25:03;35.90;1.00
11559;DHT22;5835;42.930;25.178;2023-07-20T13:27:32;36.10;1.00
11559;DHT22;5835;42.930;25.178;2023-07-20T13:30:00;35.70;1.00
11559;DHT22;5835;42.930;25.178;2023-07-20T13:32:32;36.20;1.00
11559;DHT22;5835;42.930;25.178;2023-07-20T13:35:00;36.40;1.00
11559;DHT22;5835;42.930;25.178;2023-07-20T13:37:28;36.20;1.00
11559;DHT22;5835;42.930;25.178;2023-07-20T13:39:56;36.40;1.00
11559;DHT22;5835;42.930;25.178;2023-07-20T13:42:25;36.20;1.00
11559;DHT22;5835;42.930;25.178;2023-07-20T13:44:53;36.10;1.00
11559;DHT22;5835;42.930;25.178;2023-07-20T13:47:21;36.10;1.00
11559;DHT22;5835;42.930;25.178;2023-07-20T13:49:48;36.40;1.00
11559;DHT22;5835;42.930;25.178;2023-07-20T13:52:16;36.80;1.00
11559;DHT22;5835;42.930;25.178;2023-07-20T13:54:44;36.60;1.00
11559;DHT22;5835;42.930;25.178;2023-07-20T13:57:11;36.50;1.00
11559;DHT22;5835;42.930;25.178;2023-07-20T13:59:41;37.10;1.00
11559;DHT22;5835;42.930;25.178;2023-07-20T14:02:09;37.30;1.00
11559;DHT22;5835;42.930;25.178;2023-07-20T14:04:36;36.10;1.00
11559;DHT22;5835;42.930;25.178;2023-07-20T14:07:04;35.70;1.00
11559;DHT22;5835;42.930;25.178;2023-07-20T14:09:32;35.60;1.00
11559;DHT22;5835;42.930;25.178;2023-07-20T14:11:59;35.60;1.00
11559;DHT22;5835;42.930;25.178;2023-07-20T14:14:27;35.40;1.00
11559;DHT22;5835;42.930;25.178;2023-07-20T14:16:56;34.20;1.00
11559;DHT22;5835;42.930;25.178;2023-07-20T14:19:24;34.70;1.00
11559;DHT22;5835;42.930;25.178;2023-07-20T14:21:52;34.10;1.00
11559;DHT22;5835;42.930;25.178;2023-07-20T14:24:21;34.40;1.00
11559;DHT22;5835;42.930;25.178;2023-07-20T14:26:48;34.50;1.00
11559;DHT22;5835;42.930;25.178;2023-07-20T14:29:16;34.40;1.00
11559;DHT22;5835;42.930;25.178;2023-07-20T14:31:44;35.10;1.00
11559;DHT22;5835;42.930;25.178;2023-07-20T14:34:15;34.90;1.00
11559;DHT22;5835;42.930;25.178;2023-07-20T14:36:44;34.90;1.00
11559;DHT22;5835;42.930;25.178;2023-07-20T14:39:12;34.80;1.00
11559;DHT22;5835;42.930;25.178;2023-07-20T14:41:39;34.60;1.00
11559;DHT22;5835;42.930;25.178;2023-07-20T14:44:07;34.60;1.00
11559;DHT22;5835;42.930;25.178;2023-07-20T14:46:36;35.10;1.00
11559;DHT22;5835;42.930;25.178;2023-07-20T14:49:03;34.40;1.00
11559;DHT22;5835;42.930;25.178;2023-07-20T14:51:33;33.50;1.00
11559;DHT22;5835;42.930;25.178;2023-07-20T14:54:02;34.00;1.00
11559;DHT22;5835;42.930;25.178;2023-07-20T14:56:29;33.20;1.00
11559;DHT22;5835;42.930;25.178;2023-07-20T14:58:57;33.40;1.00
11559;DHT22;5835;42.930;25.178;2023-07-20T15:01:26;33.20;1.00
11559;DHT22;5835;42.930;25.178;2023-07-20T15:03:54;32.20;1.00
11559;DHT22;5835;42.930;25.178;2023-07-20T15:06:22;32.00;1.00
11559;DHT22;5835;42.930;25.178;2023-07-20T15:08:52;32.10;1.00
11559;DHT22;5835;42.930;25.178;2023-07-20T15:11:19;32.40;1.00
11559;DHT22;5835;42.930;25.178;2023-07-20T15:13:47;33.00;1.00
11559;DHT22;5835;42.930;25.178;2023-07-20T15:16:15;33.50;1.00
11559;DHT22;5835;42.930;25.178;2023-07-20T15:18:43;33.80;1.00
11559;DHT22;5835;42.930;25.178;2023-07-20T15:21:10;33.80;1.00
11559;DHT22;5835;42.930;25.178;2023-07-20T15:23:38;33.20;1.00
11559;DHT22;5835;42.930;25.178;2023-07-20T15:26:07;33.70;1.00
11559;DHT22;5835;42.930;25.178;2023-07-20T15:28:34;34.20;1.00
11559;DHT22;5835;42.930;25.178;2023-07-20T15:31:03;33.30;1.00
11559;DHT22;5835;42.930;25.178;2023-07-20T15:33:31;33.90;1.00
11559;DHT22;5835;42.930;25.178;2023-07-20T15:35:59;33.20;1.00
11559;DHT22;5835;42.930;25.178;2023-07-20T15:38:26;33.00;1.00
11559;DHT22;5835;42.930;25.178;2023-07-20T15:40:54;33.10;1.00
11559;DHT22;5835;42.930;25.178;2023-07-20T15:43:26;33.00;1.00
11559;DHT22;5835;42.930;25.178;2023-07-20T15:46:01;32.80;1.00
11559;DHT22;5835;42.930;25.178;2023-07-20T15:48:30;32.20;1.00
11559;DHT22;5835;42.930;25.178;2023-07-20T15:50:57;32.90;1.00
11559;DHT22;5835;42.930;25.178;2023-07-20T15:53:25;32.40;1.00
11559;DHT22;5835;42.930;25.178;2023-07-20T15:55:53;31.70;1.00
11559;DHT22;5835;42.930;25.178;2023-07-20T15:58:22;31.70;1.00
11559;DHT22;5835;42.930;25.178;2023-07-20T16:00:55;30.80;1.00
11559;DHT22;5835;42.930;25.178;2023-07-20T16:03:23;30.70;1.00
11559;DHT22;5835;42.930;25.178;2023-07-20T16:05:52;30.50;1.00
11559;DHT22;5835;42.930;25.178;2023-07-20T16:08:20;30.30;1.00
11559;DHT22;5835;42.930;25.178;2023-07-20T16:10:47;30.50;1.00
11559;DHT22;5835;42.930;25.178;2023-07-20T16:13:15;30.20;1.00
11559;DHT22;5835;42.930;25.178;2023-07-20T16:15:43;30.00;1.00
11559;DHT22;5835;42.930;25.178;2023-07-20T16:18:12;29.90;1.00
11559;DHT22;5835;42.930;25.178;2023-07-20T16:20:40;30.70;1.00
11559;DHT22;5835;42.930;25.178;2023-07-20T16:23:07;30.20;1.00
11559;DHT22;5835;42.930;25.178;2023-07-20T16:25:35;30.00;1.00
11559;DHT22;5835;42.930;25.178;2023-07-20T16:28:03;29.90;1.00
11559;DHT22;5835;42.930;25.178;2023-07-20T16:30:31;29.90;1.00